Time;durP1;ratioP1;P1;durP2;ratioP2;P2;SDS_P1;SDS_P2;PMS_P1;PMS_P2;Temp;Humidity;BMP_temperature;BMP_pressure;BME280_temperature;BME280_humidity;BME280_pressure;Samples;Min_cycle;Max_cycle;Signal;HPM_P1;HPM_P2
2022/11/18 00:01:34;;;;;;;12.90;7.10;;;;;;;;;;5064736;28;20487;-70
2022/11/18 00:04:02;;;;;;;16.60;8.43;;;;;;;;;;5067916;28;20493;-70
2022/11/18 00:06:32;;;;;;;16.17;9.17;;;;;;;;;;5059849;28;20823;-70
2022/11/18 00:09:01;;;;;;;14.87;8.30;;;;;;;;;;5075227;28;20455;-69
2022/11/18 00:14:21;;;;;;;15.70;8.80;;;;;;;;;;5075180;28;20443;-72
2022/11/18 00:16:51;;;;;;;16.40;9.37;;;;;;;;;;5075763;28;20550;-69
2022/11/18 00:19:18;;;;;;;15.93;8.43;;;;;;;;;;5074921;28;20735;-71
2022/11/18 00:21:46;;;;;;;12.37;7.90;;;;;;;;;;5075674;28;20460;-70
2022/11/18 00:24:16;;;;;;;20.27;9.90;;;;;;;;;;5063269;28;20997;-71
2022/11/18 00:26:43;;;;;;;14.80;9.00;;;;;;;;;;5058921;28;20531;-70
2022/11/18 00:29:15;;;;;;;16.63;8.97;;;;;;;;;;5055890;28;20457;-70
2022/11/18 00:31:43;;;;;;;13.90;8.10;;;;;;;;;;5056366;28;20948;-70
2022/11/18 00:34:12;;;;;;;19.63;9.70;;;;;;;;;;5071958;28;20530;-70
2022/11/18 00:36:40;;;;;;;17.23;9.87;;;;;;;;;;5078359;28;20459;-70
2022/11/18 00:39:07;;;;;;;14.73;9.60;;;;;;;;;;5060138;28;20873;-70
2022/11/18 00:44:22;;;;;;;17.37;10.60;;;;;;;;;;5054661;28;20471;-70
2022/11/18 00:46:50;;;;;;;18.37;10.60;;;;;;;;;;5079264;28;20719;-70
2022/11/18 00:49:18;;;;;;;21.37;11.70;;;;;;;;;;5061082;28;20552;-70
2022/11/18 00:51:45;;;;;;;16.30;10.03;;;;;;;;;;5058727;28;20454;-70
2022/11/18 00:54:17;;;;;;;16.10;8.93;;;;;;;;;;5042711;28;20458;-70
2022/11/18 00:56:46;;;;;;;13.73;7.57;;;;;;;;;;5064201;28;20450;-70
2022/11/18 00:59:17;;;;;;;19.10;10.30;;;;;;;;;;5065851;28;20877;-70
2022/11/18 01:01:45;;;;;;;16.37;10.90;;;;;;;;;;5069079;28;20448;-70
2022/11/18 01:04:13;;;;;;;18.60;9.43;;;;;;;;;;5060454;28;20473;-71
2022/11/18 01:06:41;;;;;;;16.47;9.00;;;;;;;;;;5058160;28;20521;-70
2022/11/18 01:09:09;;;;;;;19.23;10.73;;;;;;;;;;5057904;28;20465;-70
2022/11/18 01:14:24;;;;;;;16.97;8.50;;;;;;;;;;5057691;28;20465;-69
2022/11/18 01:16:55;;;;;;;14.40;9.10;;;;;;;;;;5058164;28;20532;-69
2022/11/18 01:19:24;;;;;;;15.50;8.60;;;;;;;;;;5057643;28;20450;-70
2022/11/18 01:21:52;;;;;;;17.40;8.73;;;;;;;;;;5057106;28;20446;-70
2022/11/18 01:24:20;;;;;;;19.00;10.23;;;;;;;;;;5058092;28;20488;-70
2022/11/18 01:26:47;;;;;;;15.60;8.50;;;;;;;;;;5057613;28;20773;-70
2022/11/18 01:29:15;;;;;;;20.63;8.90;;;;;;;;;;5058189;28;20484;-70
2022/11/18 01:31:44;;;;;;;14.33;8.43;;;;;;;;;;5053209;28;20533;-70
2022/11/18 01:34:12;;;;;;;16.27;8.70;;;;;;;;;;5037678;28;20454;-70
2022/11/18 01:36:42;;;;;;;17.10;7.90;;;;;;;;;;5036745;28;20458;-70
2022/11/18 01:39:10;;;;;;;14.30;8.17;;;;;;;;;;5038163;28;20470;-70
2022/11/18 01:41:38;;;;;;;11.53;7.87;;;;;;;;;;5056687;28;20520;-70
2022/11/18 01:44:06;;;;;;;14.30;7.30;;;;;;;;;;5077794;28;20992;-70
2022/11/18 01:46:35;;;;;;;11.43;7.40;;;;;;;;;;5074210;28;20763;-70
2022/11/18 01:49:06;;;;;;;14.83;9.37;;;;;;;;;;5068571;28;20453;-70
2022/11/18 01:51:45;;;;;;;17.30;9.20;;;;;;;;;;5057378;28;20457;-70
2022/11/18 01:54:15;;;;;;;11.93;7.60;;;;;;;;;;5037513;28;20461;-70
2022/11/18 01:56:43;;;;;;;16.43;9.57;;;;;;;;;;5055338;28;20450;-71
2022/11/18 01:59:12;;;;;;;14.10;9.20;;;;;;;;;;5072382;28;20537;-71
2022/11/18 02:01:40;;;;;;;15.47;7.07;;;;;;;;;;5049452;28;20859;-70
2022/11/18 02:04:10;;;;;;;11.57;7.27;;;;;;;;;;5048933;28;20803;-71
2022/11/18 02:06:38;;;;;;;14.27;8.10;;;;;;;;;;5056824;28;20449;-71
2022/11/18 02:09:06;;;;;;;13.13;9.07;;;;;;;;;;5057107;28;20469;-71
2022/11/18 02:11:54;;;;;;;15.63;9.77;;;;;;;;;;5057533;28;20458;-70
2022/11/18 02:14:23;;;;;;;14.73;9.20;;;;;;;;;;5056632;28;20445;-69
2022/11/18 02:16:59;;;;;;;13.87;7.77;;;;;;;;;;5057053;28;20472;-70
2022/11/18 02:19:51;;;;;;;12.37;8.10;;;;;;;;;;5055961;28;20449;-70
2022/11/18 02:22:27;;;;;;;12.60;8.77;;;;;;;;;;5055935;28;20462;-71
2022/11/18 02:25:04;;;;;;;11.53;7.20;;;;;;;;;;5056278;28;20484;-69
2022/11/18 02:27:47;;;;;;;16.10;8.87;;;;;;;;;;5056447;28;20523;-70
2022/11/18 02:30:17;;;;;;;13.77;8.73;;;;;;;;;;5055649;28;20544;-70
2022/11/18 02:32:48;;;;;;;14.80;8.23;;;;;;;;;;5056293;28;20441;-70
2022/11/18 02:35:20;;;;;;;15.77;9.10;;;;;;;;;;5056579;28;20457;-69
2022/11/18 02:37:51;;;;;;;14.40;8.40;;;;;;;;;;5056296;28;20560;-69
2022/11/18 02:40:22;;;;;;;15.10;8.77;;;;;;;;;;5056153;28;20461;-69
2022/11/18 02:42:56;;;;;;;15.40;8.20;;;;;;;;;;5056389;28;20809;-69
2022/11/18 02:45:27;;;;;;;11.97;6.67;;;;;;;;;;5055209;28;20482;-69
2022/11/18 02:47:57;;;;;;;12.43;6.87;;;;;;;;;;5055783;28;20544;-69
2022/11/18 02:50:26;;;;;;;14.80;8.57;;;;;;;;;;5056232;28;20886;-69
2022/11/18 02:52:57;;;;;;;14.23;7.43;;;;;;;;;;5068279;28;20490;-69
2022/11/18 02:55:26;;;;;;;14.87;7.87;;;;;;;;;;5064490;28;20458;-69
2022/11/18 02:57:54;;;;;;;18.07;10.17;;;;;;;;;;5056197;28;20898;-69
2022/11/18 03:00:22;;;;;;;14.80;8.27;;;;;;;;;;5055721;28;20485;-69
2022/11/18 03:02:52;;;;;;;14.80;9.70;;;;;;;;;;5056393;28;20696;-69
2022/11/18 03:05:23;;;;;;;16.33;9.37;;;;;;;;;;5055890;28;20555;-69
2022/11/18 03:07:55;;;;;;;17.73;8.30;;;;;;;;;;5055677;28;20461;-69
2022/11/18 03:10:24;;;;;;;16.60;10.00;;;;;;;;;;5055116;28;20702;-69
2022/11/18 03:12:55;;;;;;;20.33;11.50;;;;;;;;;;5056073;28;20461;-69
2022/11/18 03:15:26;;;;;;;17.80;10.40;;;;;;;;;;5055042;28;20509;-68
2022/11/18 03:17:57;;;;;;;15.93;8.43;;;;;;;;;;5055846;28;20838;-69
2022/11/18 03:20:27;;;;;;;17.80;10.00;;;;;;;;;;5055400;28;20464;-69
2022/11/18 03:22:57;;;;;;;16.10;9.77;;;;;;;;;;5056082;28;20457;-68
2022/11/18 03:25:29;;;;;;;18.40;9.73;;;;;;;;;;5055562;28;20517;-68
2022/11/18 03:28:02;;;;;;;18.10;8.93;;;;;;;;;;5055819;28;20713;-68
2022/11/18 03:30:31;;;;;;;20.47;11.27;;;;;;;;;;5055370;28;20828;-68
2022/11/18 03:33:02;;;;;;;15.97;8.70;;;;;;;;;;5056383;28;20547;-69
2022/11/18 03:35:31;;;;;;;19.63;10.33;;;;;;;;;;5054470;28;20738;-68
2022/11/18 03:38:02;;;;;;;18.20;9.50;;;;;;;;;;5056021;28;20457;-68
2022/11/18 03:40:33;;;;;;;20.20;10.77;;;;;;;;;;5055161;28;20952;-69
2022/11/18 03:43:03;;;;;;;19.53;11.20;;;;;;;;;;5056065;28;20451;-69
2022/11/18 03:45:33;;;;;;;16.40;9.90;;;;;;;;;;5055550;28;20489;-68
2022/11/18 03:48:05;;;;;;;17.57;11.47;;;;;;;;;;5054930;28;20481;-68
2022/11/18 03:50:34;;;;;;;15.50;9.30;;;;;;;;;;5054438;28;20868;-69
2022/11/18 03:53:02;;;;;;;20.47;10.43;;;;;;;;;;5055073;28;20445;-68
2022/11/18 03:55:32;;;;;;;16.70;8.60;;;;;;;;;;5055290;28;20480;-68
2022/11/18 03:58:02;;;;;;;19.03;10.73;;;;;;;;;;5055201;28;20537;-69
2022/11/18 04:00:32;;;;;;;21.20;11.57;;;;;;;;;;5059315;28;20469;-70
2022/11/18 04:03:04;;;;;;;17.60;10.07;;;;;;;;;;5059233;28;20457;-69
2022/11/18 04:05:39;;;;;;;13.50;9.10;;;;;;;;;;5073088;28;20565;-69
2022/11/18 04:08:08;;;;;;;15.53;10.00;;;;;;;;;;5077774;28;20451;-69
2022/11/18 04:10:38;;;;;;;19.13;11.10;;;;;;;;;;5069815;28;20531;-70
2022/11/18 04:13:07;;;;;;;17.43;10.53;;;;;;;;;;5073462;28;20460;-69
2022/11/18 04:15:38;;;;;;;20.37;11.23;;;;;;;;;;5077345;28;20530;-69
2022/11/18 04:18:07;;;;;;;20.60;11.27;;;;;;;;;;5058860;28;20540;-69
2022/11/18 04:20:38;;;;;;;21.33;12.43;;;;;;;;;;5058312;28;20461;-69
2022/11/18 04:23:08;;;;;;;18.87;11.63;;;;;;;;;;5058809;28;20449;-69
2022/11/18 04:25:36;;;;;;;16.27;9.70;;;;;;;;;;5058766;28;20562;-69
2022/11/18 04:28:04;;;;;;;23.77;11.60;;;;;;;;;;5059177;28;20453;-69
2022/11/18 04:30:31;;;;;;;16.40;10.03;;;;;;;;;;5058791;28;20800;-69
2022/11/18 04:32:59;;;;;;;17.93;11.10;;;;;;;;;;5058134;28;20947;-70
2022/11/18 04:35:28;;;;;;;13.60;9.07;;;;;;;;;;5058414;28;21089;-69
2022/11/18 04:37:59;;;;;;;17.73;10.90;;;;;;;;;;5058495;28;20449;-69
2022/11/18 04:40:26;;;;;;;20.10;11.73;;;;;;;;;;5058110;28;20542;-69
2022/11/18 04:42:54;;;;;;;18.37;12.13;;;;;;;;;;5053089;28;20469;-69
2022/11/18 04:45:22;;;;;;;22.47;11.07;;;;;;;;;;5038344;28;20497;-70
2022/11/18 04:47:50;;;;;;;18.93;11.10;;;;;;;;;;5069857;28;20539;-70
2022/11/18 04:50:18;;;;;;;17.53;9.80;;;;;;;;;;5059361;28;20564;-70
2022/11/18 04:52:47;;;;;;;24.03;12.23;;;;;;;;;;5066642;28;20460;-70
2022/11/18 04:55:15;;;;;;;15.23;9.00;;;;;;;;;;5078482;28;20448;-70
2022/11/18 04:57:42;;;;;;;17.00;11.37;;;;;;;;;;5078131;28;20456;-70
2022/11/18 05:00:10;;;;;;;16.50;10.00;;;;;;;;;;5066195;28;20449;-70
2022/11/18 05:02:38;;;;;;;22.17;11.67;;;;;;;;;;5057828;28;20477;-69
2022/11/18 05:05:06;;;;;;;16.10;9.63;;;;;;;;;;5058294;28;20493;-70
2022/11/18 05:07:34;;;;;;;18.00;10.10;;;;;;;;;;5058419;28;20457;-68
2022/11/18 05:10:03;;;;;;;20.27;11.13;;;;;;;;;;5071690;28;20444;-70
2022/11/18 05:15:16;;;;;;;18.37;11.13;;;;;;;;;;5077382;28;20483;-69
2022/11/18 05:17:43;;;;;;;18.83;11.50;;;;;;;;;;5063529;28;20856;-70
2022/11/18 05:20:12;;;;;;;19.60;11.63;;;;;;;;;;5068506;28;20441;-69
2022/11/18 05:22:39;;;;;;;18.43;11.47;;;;;;;;;;5076814;28;20456;-69
2022/11/18 05:25:09;;;;;;;17.37;11.57;;;;;;;;;;5076588;28;20460;-69
2022/11/18 05:27:39;;;;;;;19.47;12.00;;;;;;;;;;5075110;28;20460;-69
2022/11/18 05:30:07;;;;;;;23.10;12.13;;;;;;;;;;5076697;28;20456;-69
2022/11/18 05:32:35;;;;;;;20.30;12.33;;;;;;;;;;5060075;28;20465;-69
2022/11/18 05:35:03;;;;;;;15.47;9.93;;;;;;;;;;5072064;28;20492;-69
2022/11/18 05:37:33;;;;;;;16.40;10.40;;;;;;;;;;5056642;28;20469;-69
2022/11/18 05:40:00;;;;;;;17.10;11.43;;;;;;;;;;5058008;28;20733;-69
2022/11/18 05:45:15;;;;;;;17.40;10.50;;;;;;;;;;5050164;28;20457;-69
2022/11/18 05:50:23;;;;;;;21.80;12.73;;;;;;;;;;5073488;28;20432;-69
2022/11/18 05:52:51;;;;;;;20.97;9.97;;;;;;;;;;5075504;28;20453;-69
2022/11/18 05:55:21;;;;;;;18.57;10.00;;;;;;;;;;5075478;28;20452;-69
2022/11/18 05:57:51;;;;;;;17.33;10.23;;;;;;;;;;5075722;28;20750;-69
2022/11/18 06:00:19;;;;;;;15.40;9.43;;;;;;;;;;5064114;28;20874;-69
2022/11/18 06:02:49;;;;;;;23.77;12.10;;;;;;;;;;5071140;28;20448;-69
2022/11/18 06:05:17;;;;;;;20.73;11.80;;;;;;;;;;5061247;28;20462;-69
2022/11/18 06:07:47;;;;;;;18.60;11.43;;;;;;;;;;5055740;28;20449;-69
2022/11/18 06:10:19;;;;;;;16.73;9.57;;;;;;;;;;5055848;28;20457;-69
2022/11/18 06:12:48;;;;;;;15.27;9.67;;;;;;;;;;5053799;28;20563;-69
2022/11/18 06:15:19;;;;;;;15.27;9.40;;;;;;;;;;5051204;28;20752;-69
2022/11/18 06:17:50;;;;;;;17.53;10.70;;;;;;;;;;5055310;28;20484;-70
2022/11/18 06:20:18;;;;;;;19.50;10.70;;;;;;;;;;5053489;28;20465;-70
2022/11/18 06:22:50;;;;;;;17.33;11.47;;;;;;;;;;5059543;28;20445;-69
2022/11/18 06:25:18;;;;;;;21.70;11.33;;;;;;;;;;5055500;28;20533;-69
2022/11/18 06:27:46;;;;;;;18.10;10.23;;;;;;;;;;5070751;28;20488;-69
2022/11/18 06:30:17;;;;;;;17.10;9.90;;;;;;;;;;5049856;28;20540;-69
2022/11/18 06:32:44;;;;;;;17.40;11.20;;;;;;;;;;5060546;28;20967;-69
2022/11/18 06:35:12;;;;;;;19.27;11.97;;;;;;;;;;5073404;28;20448;-69
2022/11/18 06:37:41;;;;;;;17.17;9.83;;;;;;;;;;5053020;28;20453;-69
2022/11/18 06:40:12;;;;;;;17.57;10.10;;;;;;;;;;5068748;28;20460;-69
2022/11/18 06:45:26;;;;;;;19.73;13.90;;;;;;;;;;5061621;28;20453;-69
2022/11/18 06:47:56;;;;;;;15.60;9.50;;;;;;;;;;5066544;28;20464;-69
2022/11/18 06:50:27;;;;;;;20.50;12.10;;;;;;;;;;5057730;28;20453;-70
2022/11/18 06:52:55;;;;;;;20.40;10.80;;;;;;;;;;5074557;28;20456;-69
2022/11/18 06:55:23;;;;;;;17.90;10.33;;;;;;;;;;5071068;28;20448;-69
2022/11/18 06:57:52;;;;;;;23.33;9.53;;;;;;;;;;5052967;28;20461;-69
2022/11/18 07:00:23;;;;;;;14.13;9.50;;;;;;;;;;5055550;28;20498;-69
2022/11/18 07:02:57;;;;;;;19.57;10.30;;;;;;;;;;5056851;28;20500;-69
2022/11/18 07:05:28;;;;;;;16.67;12.00;;;;;;;;;;5056184;28;20460;-69
2022/11/18 07:08:00;;;;;;;22.27;11.33;;;;;;;;;;5053171;28;20484;-69
2022/11/18 07:10:32;;;;;;;16.10;9.70;;;;;;;;;;5051164;28;20464;-69
2022/11/18 07:13:00;;;;;;;21.80;11.10;;;;;;;;;;5052184;28;20492;-69
2022/11/18 07:15:30;;;;;;;18.73;10.03;;;;;;;;;;5055095;28;20442;-69
2022/11/18 07:18:00;;;;;;;20.33;10.70;;;;;;;;;;5055436;28;20461;-69
2022/11/18 07:20:30;;;;;;;17.20;11.63;;;;;;;;;;5052947;28;20462;-70
2022/11/18 07:22:58;;;;;;;22.63;12.30;;;;;;;;;;5055398;28;20531;-71
2022/11/18 07:25:26;;;;;;;21.03;10.83;;;;;;;;;;5054741;28;20921;-70
2022/11/18 07:27:54;;;;;;;20.63;12.23;;;;;;;;;;5039373;28;20492;-70
2022/11/18 07:30:22;;;;;;;14.93;11.23;;;;;;;;;;5047232;28;20972;-70
2022/11/18 07:32:49;;;;;;;19.27;10.47;;;;;;;;;;5050289;28;20489;-70
2022/11/18 07:35:22;;;;;;;19.23;11.57;;;;;;;;;;5057996;28;20564;-70
2022/11/18 07:37:50;;;;;;;25.40;13.27;;;;;;;;;;5058380;28;20551;-70
2022/11/18 07:40:18;;;;;;;17.53;11.77;;;;;;;;;;5057369;28;20936;-71
2022/11/18 07:42:47;;;;;;;19.80;12.23;;;;;;;;;;5057525;28;20457;-71
2022/11/18 07:45:30;;;;;;;24.20;12.40;;;;;;;;;;5057927;28;20453;-71
2022/11/18 07:48:02;;;;;;;23.30;14.53;;;;;;;;;;5046872;28;20583;-71
2022/11/18 07:50:32;;;;;;;24.97;13.73;;;;;;;;;;5058475;28;20529;-71
2022/11/18 07:53:04;;;;;;;21.90;13.77;;;;;;;;;;5066543;28;20465;-70
2022/11/18 07:55:33;;;;;;;24.10;14.93;;;;;;;;;;5069891;28;20452;-71
2022/11/18 07:58:06;;;;;;;27.23;13.40;;;;;;;;;;5068813;28;20776;-71
2022/11/18 08:00:38;;;;;;;21.77;11.07;;;;;;;;;;5057234;28;20497;-71
2022/11/18 08:03:09;;;;;;;22.03;13.20;;;;;;;;;;5061510;28;20458;-71
2022/11/18 08:05:43;;;;;;;21.50;13.17;;;;;;;;;;5071602;28;20462;-71
2022/11/18 08:08:12;;;;;;;23.23;13.50;;;;;;;;;;5053486;28;20524;-71
2022/11/18 08:10:44;;;;;;;22.00;13.30;;;;;;;;;;5055960;28;20461;-71
2022/11/18 08:13:19;;;;;;;21.47;12.67;;;;;;;;;;5052864;28;20461;-70
2022/11/18 08:15:51;;;;;;;20.17;13.63;;;;;;;;;;5055930;28;20473;-70
2022/11/18 08:18:23;;;;;;;18.27;12.27;;;;;;;;;;5052164;28;20457;-69
2022/11/18 08:21:00;;;;;;;24.07;13.70;;;;;;;;;;5052071;28;20917;-71
2022/11/18 08:23:30;;;;;;;21.83;12.23;;;;;;;;;;5050764;28;20471;-71
2022/11/18 08:26:06;;;;;;;16.77;9.10;;;;;;;;;;5042425;28;20489;-72
2022/11/18 08:28:36;;;;;;;24.40;14.00;;;;;;;;;;5046112;28;20587;-71
2022/11/18 08:31:12;;;;;;;20.70;12.83;;;;;;;;;;5056353;28;20457;-72
2022/11/18 08:33:52;;;;;;;17.30;10.70;;;;;;;;;;5058016;28;20441;-72
2022/11/18 08:36:28;;;;;;;22.57;13.00;;;;;;;;;;5041058;28;20470;-70
2022/11/18 08:39:22;;;;;;;19.30;12.23;;;;;;;;;;5053786;28;20845;-70
2022/11/18 08:42:09;;;;;;;20.20;11.10;;;;;;;;;;5053938;28;20497;-71
2022/11/18 08:47:28;;;;;;;21.77;12.27;;;;;;;;;;5044357;28;20585;-71
2022/11/18 08:49:56;;;;;;;25.90;12.20;;;;;;;;;;5055671;28;20540;-70
2022/11/18 08:52:25;;;;;;;19.13;11.20;;;;;;;;;;5065232;28;20863;-71
2022/11/18 08:54:58;;;;;;;20.30;11.73;;;;;;;;;;5060581;28;20596;-70
2022/11/18 08:57:28;;;;;;;16.40;11.43;;;;;;;;;;5055493;28;20704;-71
2022/11/18 08:59:56;;;;;;;19.33;11.93;;;;;;;;;;5054661;28;20524;-70
2022/11/18 09:02:24;;;;;;;21.60;12.60;;;;;;;;;;5054141;28;21072;-71
2022/11/18 09:04:55;;;;;;;17.57;10.90;;;;;;;;;;5065421;28;20507;-71
2022/11/18 09:07:35;;;;;;;18.67;11.97;;;;;;;;;;5074093;28;20498;-71
2022/11/18 09:10:06;;;;;;;20.53;12.37;;;;;;;;;;5056140;28;20461;-72
2022/11/18 09:12:33;;;;;;;18.43;12.00;;;;;;;;;;5072017;28;20456;-71
2022/11/18 09:15:01;;;;;;;21.00;12.93;;;;;;;;;;5076445;28;20456;-71
2022/11/18 09:17:29;;;;;;;18.67;10.63;;;;;;;;;;5076434;28;20484;-72
2022/11/18 09:20:06;;;;;;;17.30;10.70;;;;;;;;;;5076117;28;20507;-71
2022/11/18 09:22:36;;;;;;;18.43;12.80;;;;;;;;;;5053697;28;20464;-71
2022/11/18 09:25:05;;;;;;;15.43;10.30;;;;;;;;;;5043462;28;20589;-71
2022/11/18 09:27:34;;;;;;;18.57;10.90;;;;;;;;;;5054226;28;20492;-71
2022/11/18 09:30:02;;;;;;;19.23;11.47;;;;;;;;;;5050632;28;20552;-71
2022/11/18 09:32:30;;;;;;;21.87;11.87;;;;;;;;;;5055332;28;20556;-72
2022/11/18 09:34:57;;;;;;;19.17;10.77;;;;;;;;;;5055730;28;20450;-71
2022/11/18 09:37:27;;;;;;;22.73;12.80;;;;;;;;;;5048368;28;20462;-71
2022/11/18 09:39:59;;;;;;;17.40;11.80;;;;;;;;;;5051723;28;20472;-71
2022/11/18 09:42:40;;;;;;;24.10;12.40;;;;;;;;;;5047741;28;20465;-69
2022/11/18 09:45:27;;;;;;;21.13;10.97;;;;;;;;;;5053039;28;20449;-70
2022/11/18 09:48:00;;;;;;;17.97;10.73;;;;;;;;;;5054967;28;20852;-70
2022/11/18 09:50:30;;;;;;;14.33;9.53;;;;;;;;;;5054540;28;20482;-71
2022/11/18 09:53:04;;;;;;;17.53;11.93;;;;;;;;;;5054903;28;20563;-71
2022/11/18 09:55:40;;;;;;;19.27;11.73;;;;;;;;;;5043323;28;20463;-71
2022/11/18 09:58:08;;;;;;;16.57;9.97;;;;;;;;;;5035763;28;20553;-71
2022/11/18 10:00:43;;;;;;;15.60;10.53;;;;;;;;;;5035950;28;20811;-71
2022/11/18 10:03:21;;;;;;;20.60;11.30;;;;;;;;;;5036499;28;20445;-72
2022/11/18 10:05:50;;;;;;;16.50;10.13;;;;;;;;;;5035423;28;20547;-69
2022/11/18 10:08:23;;;;;;;15.63;9.93;;;;;;;;;;5036731;28;20494;-69
2022/11/18 10:10:56;;;;;;;16.10;12.00;;;;;;;;;;5053018;28;20889;-70
2022/11/18 10:13:40;;;;;;;17.20;10.80;;;;;;;;;;5055175;28;20560;-71
2022/11/18 10:16:22;;;;;;;21.20;12.83;;;;;;;;;;5038367;28;20458;-69
2022/11/18 10:18:53;;;;;;;20.70;11.80;;;;;;;;;;5054433;28;20555;-71
2022/11/18 10:21:25;;;;;;;21.10;12.27;;;;;;;;;;5054487;28;20816;-70
2022/11/18 10:23:56;;;;;;;18.47;11.13;;;;;;;;;;5054925;28;20532;-70
2022/11/18 10:26:49;;;;;;;17.40;11.67;;;;;;;;;;5052348;28;20602;-70
2022/11/18 10:29:21;;;;;;;18.67;11.87;;;;;;;;;;5049497;28;20449;-70
2022/11/18 10:31:57;;;;;;;19.33;10.90;;;;;;;;;;5058933;28;20461;-70
2022/11/18 10:34:28;;;;;;;20.97;9.97;;;;;;;;;;5054159;28;20492;-69
2022/11/18 10:37:03;;;;;;;17.57;11.37;;;;;;;;;;5038668;28;20914;-70
2022/11/18 10:39:31;;;;;;;16.60;11.40;;;;;;;;;;5054927;28;20448;-70
2022/11/18 10:42:02;;;;;;;19.10;10.57;;;;;;;;;;5048622;28;20462;-70
2022/11/18 10:44:34;;;;;;;17.63;10.80;;;;;;;;;;5035721;28;20447;-70
2022/11/18 10:47:33;;;;;;;11.03;7.80;;;;;;;;;;5038599;28;20505;-69
2022/11/18 10:50:06;;;;;;;15.37;10.47;;;;;;;;;;4953247;29;20450;-70
2022/11/18 10:52:55;;;;;;;16.90;10.00;;;;;;;;;;5033871;28;20496;-71
2022/11/18 10:55:34;;;;;;;13.53;8.50;;;;;;;;;;5045367;28;20468;-70
2022/11/18 10:58:16;;;;;;;21.20;10.10;;;;;;;;;;5038375;28;20541;-70
2022/11/18 11:00:45;;;;;;;14.77;8.10;;;;;;;;;;5039506;28;20737;-69
2022/11/18 11:03:30;;;;;;;14.67;8.30;;;;;;;;;;5051033;28;20469;-71
2022/11/18 11:06:16;;;;;;;13.00;8.83;;;;;;;;;;5053011;28;20469;-69
2022/11/18 11:08:53;;;;;;;17.10;9.97;;;;;;;;;;5048145;28;20485;-69
2022/11/18 11:11:30;;;;;;;18.17;10.63;;;;;;;;;;5053069;28;20464;-69
2022/11/18 11:14:19;;;;;;;13.60;8.47;;;;;;;;;;5052582;28;20477;-70
2022/11/18 11:16:53;;;;;;;19.40;9.60;;;;;;;;;;5053293;28;20547;-70
2022/11/18 11:19:26;;;;;;;16.33;8.83;;;;;;;;;;5034066;28;20466;-70
2022/11/18 11:21:54;;;;;;;14.57;10.03;;;;;;;;;;5034216;28;20525;-69
2022/11/18 11:24:28;;;;;;;13.40;9.03;;;;;;;;;;5030990;28;20462;-69
2022/11/18 11:27:00;;;;;;;15.93;9.17;;;;;;;;;;5033056;28;20457;-69
2022/11/18 11:29:39;;;;;;;18.67;10.20;;;;;;;;;;5031290;28;20869;-69
2022/11/18 11:32:11;;;;;;;13.60;9.20;;;;;;;;;;5031345;28;20446;-69
2022/11/18 11:34:44;;;;;;;12.00;8.13;;;;;;;;;;5043007;28;20481;-70
2022/11/18 11:37:16;;;;;;;13.33;8.97;;;;;;;;;;5053045;28;20904;-69
2022/11/18 11:39:52;;;;;;;12.83;7.70;;;;;;;;;;5054059;28;20549;-69
2022/11/18 11:42:32;;;;;;;12.70;7.83;;;;;;;;;;5053201;28;20532;-70
2022/11/18 11:45:12;;;;;;;13.60;8.00;;;;;;;;;;5052280;28;20504;-69
2022/11/18 11:47:48;;;;;;;14.07;8.90;;;;;;;;;;5053631;28;20485;-70
2022/11/18 11:50:21;;;;;;;11.80;8.30;;;;;;;;;;5053833;28;20442;-69
2022/11/18 11:52:56;;;;;;;15.80;7.90;;;;;;;;;;5053732;28;20929;-70
2022/11/18 11:55:29;;;;;;;14.40;9.93;;;;;;;;;;5053133;28;20494;-70
2022/11/18 11:58:03;;;;;;;12.90;7.57;;;;;;;;;;5053561;28;20462;-70
2022/11/18 12:00:34;;;;;;;11.40;7.00;;;;;;;;;;5054173;28;20457;-69
2022/11/18 12:03:06;;;;;;;11.07;8.27;;;;;;;;;;5052656;28;20502;-68
2022/11/18 12:05:38;;;;;;;13.37;8.10;;;;;;;;;;5051641;28;20461;-69
2022/11/18 12:08:09;;;;;;;13.27;7.53;;;;;;;;;;5052600;28;20785;-69
2022/11/18 12:10:45;;;;;;;16.73;7.30;;;;;;;;;;5053059;28;20469;-69
2022/11/18 12:13:25;;;;;;;11.47;6.83;;;;;;;;;;5041692;28;20466;-70
2022/11/18 12:15:58;;;;;;;12.83;8.10;;;;;;;;;;5045657;28;20460;-69
2022/11/18 12:18:28;;;;;;;9.10;6.17;;;;;;;;;;5053028;28;20519;-70
2022/11/18 12:20:55;;;;;;;10.63;7.37;;;;;;;;;;5062420;28;20528;-69
2022/11/18 12:23:38;;;;;;;16.23;7.63;;;;;;;;;;5054968;28;20504;-69
2022/11/18 12:26:07;;;;;;;19.30;8.00;;;;;;;;;;5054053;28;20955;-69
2022/11/18 12:28:40;;;;;;;10.30;6.83;;;;;;;;;;5041451;28;20492;-68
2022/11/18 12:31:26;;;;;;;10.47;7.17;;;;;;;;;;5044191;28;20892;-68
2022/11/18 12:33:56;;;;;;;8.27;6.73;;;;;;;;;;5051327;28;21048;-68
2022/11/18 12:36:27;;;;;;;11.63;7.63;;;;;;;;;;5054866;28;20449;-69
2022/11/18 12:38:55;;;;;;;11.70;8.80;;;;;;;;;;5055210;28;20868;-69
2022/11/18 12:44:34;;;;;;;10.13;6.67;;;;;;;;;;5057938;28;21016;-67
2022/11/18 12:47:04;;;;;;;12.27;7.60;;;;;;;;;;5046449;28;20873;-69
2022/11/18 12:49:50;;;;;;;9.90;7.53;;;;;;;;;;5049881;28;20514;-70
2022/11/18 12:52:36;;;;;;;9.67;6.03;;;;;;;;;;5053192;28;20895;-69
2022/11/18 12:55:16;;;;;;;9.90;6.73;;;;;;;;;;5052530;28;20465;-69
2022/11/18 12:57:44;;;;;;;13.80;5.87;;;;;;;;;;5055130;28;20448;-69
2022/11/18 13:03:34;;;;;;;9.07;6.07;;;;;;;;;;5037368;28;20432;-69
2022/11/18 13:06:09;;;;;;;12.00;7.30;;;;;;;;;;5049644;28;20461;-67
2022/11/18 13:08:50;;;;;;;13.03;7.60;;;;;;;;;;5040763;28;20526;-68
2022/11/18 13:20:01;;;;;;;9.60;5.90;;;;;;;;;;5042068;28;20468;-68
2022/11/18 13:25:50;;;;;;;8.07;5.77;;;;;;;;;;5046357;28;20449;-68
2022/11/18 13:28:29;;;;;;;10.53;6.20;;;;;;;;;;5040977;28;20512;-68
2022/11/18 13:31:02;;;;;;;8.10;5.60;;;;;;;;;;5043145;28;20545;-68
2022/11/18 13:33:35;;;;;;;10.20;5.53;;;;;;;;;;5040518;28;20568;-69
2022/11/18 13:39:04;;;;;;;9.27;5.57;;;;;;;;;;5043400;28;20553;-69
2022/11/18 13:41:37;;;;;;;8.53;5.30;;;;;;;;;;5042635;28;20844;-69
2022/11/18 13:44:18;;;;;;;8.70;5.77;;;;;;;;;;5045211;28;20472;-69
2022/11/18 13:46:47;;;;;;;9.03;5.80;;;;;;;;;;5045192;28;20540;-69
2022/11/18 13:49:20;;;;;;;10.17;5.47;;;;;;;;;;5042198;28;21039;-69
2022/11/18 13:51:48;;;;;;;11.87;6.80;;;;;;;;;;5044724;28;20473;-68
2022/11/18 13:57:08;;;;;;;8.93;6.60;;;;;;;;;;5037617;28;20458;-68
2022/11/18 13:59:49;;;;;;;8.60;6.27;;;;;;;;;;5037324;28;20932;-69
2022/11/18 14:02:17;;;;;;;17.83;8.53;;;;;;;;;;5036319;28;20469;-69
2022/11/18 14:05:03;;;;;;;11.90;6.17;;;;;;;;;;5049115;28;20857;-68
2022/11/18 14:07:37;;;;;;;9.23;6.00;;;;;;;;;;5037928;28;21086;-68
2022/11/18 14:10:13;;;;;;;9.57;6.53;;;;;;;;;;5035007;28;20482;-68
2022/11/18 14:13:08;;;;;;;11.33;6.40;;;;;;;;;;5039787;28;20461;-68
2022/11/18 14:15:42;;;;;;;8.87;6.30;;;;;;;;;;5037615;28;20472;-68
2022/11/18 14:18:27;;;;;;;7.57;5.53;;;;;;;;;;5048011;28;20911;-67
2022/11/18 14:20:59;;;;;;;10.10;6.27;;;;;;;;;;5048835;28;20552;-67
2022/11/18 14:23:37;;;;;;;9.93;6.70;;;;;;;;;;5052685;28;20457;-67
2022/11/18 14:26:19;;;;;;;10.67;6.80;;;;;;;;;;5047979;28;20465;-68
2022/11/18 14:28:59;;;;;;;12.50;7.50;;;;;;;;;;5041026;28;20481;-69
2022/11/18 14:31:30;;;;;;;11.13;6.77;;;;;;;;;;5040437;28;20458;-68
2022/11/18 14:34:23;;;;;;;10.67;6.20;;;;;;;;;;5037643;28;20469;-68
2022/11/18 14:36:51;;;;;;;9.97;5.63;;;;;;;;;;5021381;28;20842;-68
2022/11/18 14:39:23;;;;;;;9.50;6.50;;;;;;;;;;5043682;28;20453;-68
2022/11/18 14:42:09;;;;;;;12.57;6.37;;;;;;;;;;5043567;28;20545;-70
2022/11/18 14:44:42;;;;;;;8.80;5.50;;;;;;;;;;5039066;28;20580;-67
2022/11/18 14:47:14;;;;;;;16.33;9.00;;;;;;;;;;5039802;28;20478;-68
2022/11/18 14:49:45;;;;;;;13.73;7.77;;;;;;;;;;5037434;28;21030;-68
2022/11/18 14:52:22;;;;;;;10.00;6.20;;;;;;;;;;5035423;28;20925;-69
2022/11/18 14:54:53;;;;;;;8.83;6.07;;;;;;;;;;5047663;28;20537;-67
2022/11/18 14:57:28;;;;;;;13.97;7.83;;;;;;;;;;5046235;28;20480;-68
2022/11/18 14:59:56;;;;;;;11.70;6.03;;;;;;;;;;5039467;28;20474;-67
2022/11/18 15:02:30;;;;;;;12.53;5.97;;;;;;;;;;5035617;28;20532;-68
2022/11/18 15:05:01;;;;;;;8.43;5.67;;;;;;;;;;5034685;28;20458;-68
2022/11/18 15:07:33;;;;;;;10.33;6.10;;;;;;;;;;5038123;28;20465;-68
2022/11/18 15:10:12;;;;;;;9.10;7.00;;;;;;;;;;5039513;28;20474;-68
2022/11/18 15:12:52;;;;;;;9.57;5.90;;;;;;;;;;5042831;28;20456;-68
2022/11/18 15:18:50;;;;;;;11.90;6.50;;;;;;;;;;5038182;28;20516;-67
2022/11/18 15:21:24;;;;;;;10.47;6.10;;;;;;;;;;5040413;28;20888;-68
2022/11/18 15:23:51;;;;;;;9.07;6.20;;;;;;;;;;5040413;28;20528;-69
2022/11/18 15:26:21;;;;;;;8.73;6.30;;;;;;;;;;5025210;28;20474;-68
2022/11/18 15:28:53;;;;;;;9.93;6.53;;;;;;;;;;5038959;28;20543;-68
2022/11/18 15:31:27;;;;;;;9.33;5.77;;;;;;;;;;5052880;28;20460;-67
2022/11/18 15:33:56;;;;;;;8.57;6.10;;;;;;;;;;5045101;28;20458;-68
2022/11/18 15:36:31;;;;;;;8.63;6.30;;;;;;;;;;5037097;28;20466;-68
2022/11/18 15:39:07;;;;;;;10.20;5.73;;;;;;;;;;5049565;28;20456;-67
2022/11/18 15:41:37;;;;;;;11.30;6.20;;;;;;;;;;5049317;28;20527;-68
2022/11/18 15:46:50;;;;;;;10.37;7.43;;;;;;;;;;5034642;28;20963;-67